createdAt,value
2017-08-24T00:01:53.986Z,95827
2017-08-24T00:04:23.907Z,95820
2017-08-24T00:06:52.851Z,95827
2017-08-24T00:09:21.795Z,95830
2017-08-24T00:11:50.762Z,95820
2017-08-24T00:14:19.706Z,95828
2017-08-24T00:16:48.679Z,95825
2017-08-24T00:19:17.628Z,95830
2017-08-24T00:21:46.572Z,95826
2017-08-24T00:24:15.541Z,95824
2017-08-24T00:26:44.474Z,95823
2017-08-24T00:29:14.424Z,95825
2017-08-24T00:31:43.372Z,95829
2017-08-24T00:34:12.328Z,95824
2017-08-24T00:36:41.275Z,95826
2017-08-24T00:39:10.224Z,95827
2017-08-24T00:41:39.191Z,95817
2017-08-24T00:44:08.139Z,95825
2017-08-24T00:46:37.087Z,95820
2017-08-24T00:49:06.043Z,95820
2017-08-24T00:51:34.986Z,95813
2017-08-24T00:54:03.955Z,95818
2017-08-24T00:56:32.919Z,95823
2017-08-24T00:59:01.872Z,95816
2017-08-24T01:01:30.827Z,95824
2017-08-24T01:03:59.955Z,95819
2017-08-24T01:06:28.924Z,95842
2017-08-24T01:08:57.916Z,95817
2017-08-24T01:11:30.791Z,95817
2017-08-24T01:13:59.819Z,95814
2017-08-24T01:16:28.772Z,95814
2017-08-24T01:18:57.739Z,95813
2017-08-24T01:21:26.676Z,95806
2017-08-24T01:23:55.627Z,95805
2017-08-24T01:26:24.583Z,95794
2017-08-24T01:28:53.528Z,95802
2017-08-24T01:31:22.479Z,95799
2017-08-24T01:33:51.426Z,95799
2017-08-24T01:36:20.491Z,95794
2017-08-24T01:38:49.439Z,95803
2017-08-24T01:41:18.383Z,95801
2017-08-24T01:43:47.352Z,95802
2017-08-24T01:46:25.123Z,95803
2017-08-24T01:48:54.079Z,95820
2017-08-24T01:51:23.031Z,95797
2017-08-24T01:53:51.978Z,95801
2017-08-24T01:56:20.934Z,95796
2017-08-24T01:58:49.882Z,95793
2017-08-24T02:01:18.849Z,95794
2017-08-24T02:03:47.799Z,95789
2017-08-24T02:06:16.735Z,95801
2017-08-24T02:08:45.689Z,95796
2017-08-24T02:11:14.631Z,95803
2017-08-24T02:13:43.603Z,95798
2017-08-24T02:16:12.548Z,95798
2017-08-24T02:18:41.492Z,95800
2017-08-24T02:21:10.443Z,95797
2017-08-24T02:23:39.386Z,95803
2017-08-24T02:26:08.361Z,95797
2017-08-24T02:28:37.311Z,95801
2017-08-24T02:31:06.254Z,95792
2017-08-24T02:33:35.205Z,95793
2017-08-24T02:36:04.152Z,95788
2017-08-24T02:38:33.115Z,95791
2017-08-24T02:41:02.063Z,95788
2017-08-24T02:43:31.007Z,95793
2017-08-24T02:45:59.963Z,95790
2017-08-24T02:48:28.915Z,95791
2017-08-24T02:50:57.883Z,95785
2017-08-24T02:53:26.839Z,95786
2017-08-24T02:55:55.786Z,95790
2017-08-24T02:58:25.643Z,95789
2017-08-24T03:00:54.592Z,95784
2017-08-24T03:03:23.563Z,95791
2017-08-24T03:05:52.522Z,95787
2017-08-24T03:08:21.459Z,95787
2017-08-24T03:10:50.411Z,95781
2017-08-24T03:13:19.359Z,95733
2017-08-24T03:15:48.314Z,95791
2017-08-24T03:18:17.266Z,95799
2017-08-24T03:20:46.223Z,95793
2017-08-24T03:23:15.200Z,95790
2017-08-24T03:25:44.151Z,95799
2017-08-24T03:28:13.099Z,95799
2017-08-24T03:30:42.048Z,95785
2017-08-24T03:33:11.021Z,95787
2017-08-24T03:35:39.959Z,95793
2017-08-24T03:38:08.915Z,95794
2017-08-24T03:40:37.863Z,95786
2017-08-24T03:43:06.812Z,95792
2017-08-24T03:45:35.778Z,95798
2017-08-24T03:48:04.722Z,95799
2017-08-24T03:50:33.678Z,95804
2017-08-24T03:53:02.631Z,95809
2017-08-24T03:55:31.607Z,95797
2017-08-24T03:58:00.554Z,95811
2017-08-24T04:00:29.502Z,95811
2017-08-24T04:03:01.467Z,95812
2017-08-24T04:05:30.418Z,95737
2017-08-24T04:07:59.374Z,95803
2017-08-24T04:10:29.096Z,95811
2017-08-24T04:12:58.207Z,95821
2017-08-24T04:15:27.156Z,95817
2017-08-24T04:17:56.099Z,95821
2017-08-24T04:20:25.064Z,95826
2017-08-24T04:22:54.016Z,95820
2017-08-24T04:25:22.972Z,95820
2017-08-24T04:27:51.929Z,95824
2017-08-24T04:30:20.912Z,95823
2017-08-24T04:32:49.859Z,95825
2017-08-24T04:35:18.807Z,95821
2017-08-24T04:37:47.759Z,95821
2017-08-24T04:40:16.718Z,95820
2017-08-24T04:42:45.658Z,95819
2017-08-24T04:45:14.602Z,95819
2017-08-24T04:47:43.563Z,95819
2017-08-24T04:50:12.515Z,95827
2017-08-24T04:52:41.479Z,95820
2017-08-24T04:55:10.435Z,95822
2017-08-24T04:57:39.387Z,95826
2017-08-24T05:00:08.347Z,95831
2017-08-24T05:02:38.118Z,95835
2017-08-24T05:05:07.087Z,95828
2017-08-24T05:07:36.038Z,95838
2017-08-24T05:10:05.917Z,95842
2017-08-24T05:12:34.871Z,95827
2017-08-24T05:15:03.818Z,95838
2017-08-24T05:17:32.791Z,95832
2017-08-24T05:20:01.740Z,95843
2017-08-24T05:22:30.690Z,95836
2017-08-24T05:24:59.661Z,95843
2017-08-24T05:27:28.620Z,95842
2017-08-24T05:29:57.642Z,95837
2017-08-24T05:32:26.599Z,95835
2017-08-24T05:34:55.556Z,95836
2017-08-24T05:37:24.522Z,95831
2017-08-24T05:39:53.476Z,95843
2017-08-24T05:42:22.767Z,95844
2017-08-24T05:44:51.751Z,95845
2017-08-24T05:47:20.698Z,95849
2017-08-24T05:49:50.615Z,95846
2017-08-24T05:52:19.598Z,95848
2017-08-24T05:54:48.584Z,95852
2017-08-24T05:57:17.664Z,95845
2017-08-24T05:59:46.615Z,95853
2017-08-24T06:02:15.704Z,95851
2017-08-24T06:04:44.690Z,95858
2017-08-24T06:07:13.795Z,95858
2017-08-24T06:09:42.787Z,95858
2017-08-24T06:12:11.751Z,95861
2017-08-24T06:14:40.800Z,95879
2017-08-24T06:17:09.747Z,95872
2017-08-24T06:19:38.730Z,95881
2017-08-24T06:22:07.689Z,95890
2017-08-24T06:24:36.632Z,95883
2017-08-24T06:27:05.591Z,95884
2017-08-24T06:29:34.544Z,95882
2017-08-24T06:32:03.512Z,95882
2017-08-24T06:34:32.463Z,95883
2017-08-24T06:37:01.451Z,95876
2017-08-24T06:39:30.400Z,95871
2017-08-24T06:41:59.356Z,95871
2017-08-24T06:44:28.315Z,95871
2017-08-24T06:46:57.267Z,95871
2017-08-24T06:49:26.223Z,95869
2017-08-24T06:51:55.171Z,95866
2017-08-24T06:54:24.139Z,95867
2017-08-24T06:56:53.099Z,95871
2017-08-24T06:59:22.060Z,95879
2017-08-24T07:01:51.415Z,95875
2017-08-24T07:04:20.362Z,95874
2017-08-24T07:06:49.315Z,95870
2017-08-24T07:09:18.319Z,95881
2017-08-24T07:11:47.509Z,95878
2017-08-24T07:14:17.396Z,95886
2017-08-24T07:16:46.927Z,95882
2017-08-24T07:19:15.888Z,95873
2017-08-24T07:21:44.844Z,95882
2017-08-24T07:24:13.802Z,95893
2017-08-24T07:26:42.759Z,95891
2017-08-24T07:29:11.732Z,95887
2017-08-24T07:31:40.683Z,95902
2017-08-24T07:34:09.663Z,95892
2017-08-24T07:36:38.607Z,95900
2017-08-24T07:39:07.571Z,95909
2017-08-24T07:41:36.561Z,95913
2017-08-24T07:44:05.523Z,95936
2017-08-24T07:46:34.486Z,95921
2017-08-24T07:49:03.448Z,95917
2017-08-24T07:51:32.441Z,95871
2017-08-24T07:54:01.430Z,95917
2017-08-24T07:56:30.431Z,95920
2017-08-24T07:58:59.388Z,95917
2017-08-24T08:01:28.351Z,95919
2017-08-24T08:03:57.308Z,95925
2017-08-24T08:06:26.319Z,95926
2017-08-24T08:08:55.275Z,95926
2017-08-24T08:11:24.238Z,95928
2017-08-24T08:13:53.433Z,95928
2017-08-24T08:16:22.475Z,95925
2017-08-24T08:18:51.431Z,95924
2017-08-24T08:21:20.479Z,95926
2017-08-24T08:23:49.431Z,95930
2017-08-24T08:26:18.403Z,95928
2017-08-24T08:28:47.364Z,95936
2017-08-24T08:31:16.338Z,95931
2017-08-24T08:33:45.299Z,95934
2017-08-24T08:36:14.260Z,95941
2017-08-24T08:38:43.223Z,95947
2017-08-24T08:41:12.180Z,95957
2017-08-24T08:43:41.157Z,95949
2017-08-24T08:46:10.126Z,95943
2017-08-24T08:48:39.107Z,95957
2017-08-24T08:51:08.066Z,95961
2017-08-24T08:53:37.035Z,95955
2017-08-24T08:56:06.019Z,95956
2017-08-24T08:58:34.973Z,95957
2017-08-24T09:01:03.932Z,95971
2017-08-24T09:03:32.900Z,95971
2017-08-24T09:06:01.867Z,95973
2017-08-24T09:08:30.855Z,95972
2017-08-24T09:10:59.815Z,95987
2017-08-24T09:13:28.985Z,95990
2017-08-24T09:15:58.473Z,95989
2017-08-24T09:18:27.468Z,95996
2017-08-24T09:20:56.447Z,96000
2017-08-24T09:23:25.793Z,96009
2017-08-24T09:25:54.937Z,96006
2017-08-24T09:28:23.910Z,96010
2017-08-24T09:30:52.871Z,96008
2017-08-24T09:33:21.843Z,96011
2017-08-24T09:35:50.835Z,96018
2017-08-24T09:38:19.918Z,96015
2017-08-24T09:40:48.881Z,96015
2017-08-24T09:43:17.858Z,96017
2017-08-24T09:45:46.842Z,96024
2017-08-24T09:48:15.844Z,96029
2017-08-24T09:50:45.009Z,96024
2017-08-24T09:53:13.964Z,96032
2017-08-24T09:55:42.994Z,96027
2017-08-24T09:58:11.976Z,96024
2017-08-24T10:00:40.932Z,96022
2017-08-24T10:03:10.106Z,96030
2017-08-24T10:05:39.163Z,96032
2017-08-24T10:08:08.127Z,96029
2017-08-24T10:10:37.089Z,96024
2017-08-24T10:13:06.039Z,96029
2017-08-24T10:15:35.003Z,96027
2017-08-24T10:18:03.963Z,96023
2017-08-24T10:20:32.931Z,96031
2017-08-24T10:23:01.890Z,96024
2017-08-24T10:25:30.846Z,96027
2017-08-24T10:27:59.816Z,96027
2017-08-24T10:30:29.978Z,96027
2017-08-24T10:32:58.923Z,96020
2017-08-24T10:35:28.023Z,96017
2017-08-24T10:37:56.980Z,96013
2017-08-24T10:40:25.948Z,96013
2017-08-24T10:42:54.896Z,96014
2017-08-24T10:45:23.884Z,96016
2017-08-24T10:47:53.792Z,96021
2017-08-24T10:50:22.742Z,96014
2017-08-24T10:52:51.706Z,96012
2017-08-24T10:55:20.663Z,96015
2017-08-24T10:57:49.642Z,96013
2017-08-24T11:00:18.596Z,96006
2017-08-24T11:02:47.540Z,96001
2017-08-24T11:05:16.500Z,96007
2017-08-24T11:07:45.447Z,96013
2017-08-24T11:10:14.424Z,96006
2017-08-24T11:12:45.316Z,96003
2017-08-24T11:15:14.297Z,95998
2017-08-24T11:17:43.306Z,96001
2017-08-24T11:20:12.279Z,96002
2017-08-24T11:22:41.396Z,95998
2017-08-24T11:25:10.364Z,95995
2017-08-24T11:27:39.385Z,95992
2017-08-24T11:30:08.327Z,95996
2017-08-24T11:32:37.272Z,96005
2017-08-24T11:35:06.305Z,96000
2017-08-24T11:37:37.179Z,95994
2017-08-24T11:40:06.164Z,95997
2017-08-24T11:42:35.119Z,95996
2017-08-24T11:45:04.115Z,95996
2017-08-24T11:47:33.035Z,96001
2017-08-24T11:50:02.015Z,95998
2017-08-24T11:52:30.993Z,95994
2017-08-24T11:54:59.944Z,95994
2017-08-24T11:57:28.891Z,95997
2017-08-24T11:59:57.846Z,95988
2017-08-24T12:02:26.799Z,95998
2017-08-24T12:04:55.781Z,95999
2017-08-24T12:07:24.731Z,95990
2017-08-24T12:09:53.682Z,95986
2017-08-24T12:12:22.640Z,95978
2017-08-24T12:14:51.591Z,95988
2017-08-24T12:17:20.573Z,95992
2017-08-24T12:19:49.526Z,95991
2017-08-24T12:22:18.487Z,95992
2017-08-24T12:24:47.455Z,95992
2017-08-24T12:27:16.408Z,95990
2017-08-24T12:29:49.804Z,95990
2017-08-24T12:32:18.752Z,95985
2017-08-24T12:34:47.708Z,95983
2017-08-24T12:37:16.664Z,95970
2017-08-24T12:39:45.627Z,95979
2017-08-24T12:42:14.607Z,95976
2017-08-24T12:44:43.560Z,95978
2017-08-24T12:47:12.508Z,95971
2017-08-24T12:49:41.459Z,95975
2017-08-24T12:52:10.411Z,95974
2017-08-24T12:54:39.390Z,95973
2017-08-24T12:57:08.347Z,95977
2017-08-24T12:59:37.295Z,95978
2017-08-24T13:02:06.251Z,95977
2017-08-24T13:04:35.208Z,95974
2017-08-24T13:07:04.180Z,95978
2017-08-24T13:09:33.133Z,95978
2017-08-24T13:12:02.079Z,95979
2017-08-24T13:14:31.031Z,95981
2017-08-24T13:16:59.983Z,95973
2017-08-24T13:19:28.963Z,95975
2017-08-24T13:21:57.915Z,95974
2017-08-24T13:24:26.864Z,95966
2017-08-24T13:26:55.887Z,95963
2017-08-24T13:29:24.835Z,95961
2017-08-24T13:31:53.783Z,95955
2017-08-24T13:34:22.754Z,95965
2017-08-24T13:36:51.708Z,95961
2017-08-24T13:39:20.655Z,95960
2017-08-24T13:41:49.644Z,95964
2017-08-24T13:44:18.594Z,95967
2017-08-24T13:46:47.534Z,95962
2017-08-24T13:49:16.507Z,95962
2017-08-24T13:51:45.459Z,95962
2017-08-24T13:54:14.410Z,95958
2017-08-24T13:56:43.372Z,95960
2017-08-24T13:59:12.323Z,95972
2017-08-24T14:01:41.267Z,95964
2017-08-24T14:04:10.223Z,95964
2017-08-24T14:06:39.166Z,95963
2017-08-24T14:09:08.131Z,95965
2017-08-24T14:11:37.092Z,95966
2017-08-24T14:14:06.043Z,95971
2017-08-24T14:16:34.994Z,95977
2017-08-24T14:19:03.943Z,95970
2017-08-24T14:21:32.906Z,95973
2017-08-24T14:24:01.868Z,95972
2017-08-24T14:26:30.820Z,95970
2017-08-24T14:28:59.781Z,95974
2017-08-24T14:31:28.736Z,95974
2017-08-24T14:33:58.411Z,95973
2017-08-24T14:36:27.360Z,95972
2017-08-24T14:38:56.326Z,95980
2017-08-24T14:41:25.284Z,95981
2017-08-24T14:43:54.236Z,95977
2017-08-24T14:46:23.215Z,95980
2017-08-24T14:48:52.173Z,95980
2017-08-24T14:51:21.127Z,95977
2017-08-24T14:53:50.083Z,95998
2017-08-24T14:56:19.028Z,95978
2017-08-24T14:58:48.013Z,95974
2017-08-24T15:01:16.974Z,95978
2017-08-24T15:03:45.911Z,95967
2017-08-24T15:06:14.867Z,95967
2017-08-24T15:08:43.819Z,95958
2017-08-24T15:11:12.796Z,95956
2017-08-24T15:13:41.739Z,95952
2017-08-24T15:16:10.682Z,95954
2017-08-24T15:18:39.651Z,95956
2017-08-24T15:21:08.591Z,95959
2017-08-24T15:23:37.564Z,95951
2017-08-24T15:26:06.521Z,95957
2017-08-24T15:28:35.476Z,95956
2017-08-24T15:31:04.436Z,95955
2017-08-24T15:33:33.386Z,95947
2017-08-24T15:36:02.362Z,95950
2017-08-24T15:38:31.321Z,95944
2017-08-24T15:41:00.267Z,95942
2017-08-24T15:43:29.231Z,95943
2017-08-24T15:45:58.183Z,95944
2017-08-24T15:48:27.154Z,95945
2017-08-24T15:50:56.105Z,95943
2017-08-24T15:53:25.043Z,95935
2017-08-24T15:55:54.002Z,95939
2017-08-24T15:58:22.951Z,95931
2017-08-24T16:00:51.919Z,95927
2017-08-24T16:03:20.871Z,95930
2017-08-24T16:05:49.819Z,95927
2017-08-24T16:08:18.786Z,95926
2017-08-24T16:10:47.735Z,95932
2017-08-24T16:13:16.709Z,95931
2017-08-24T16:15:45.660Z,95930
2017-08-24T16:18:14.611Z,95922
2017-08-24T16:20:43.568Z,95918
2017-08-24T16:23:12.523Z,95913
2017-08-24T16:25:41.502Z,95919
2017-08-24T16:28:10.447Z,95933
2017-08-24T16:30:39.404Z,95930
2017-08-24T16:33:08.412Z,95929
2017-08-24T16:35:37.369Z,95935
2017-08-24T16:38:06.339Z,95941
2017-08-24T16:40:35.292Z,95949
2017-08-24T16:43:04.244Z,95953
2017-08-24T16:45:33.200Z,95962
2017-08-24T16:48:02.144Z,95966
2017-08-24T16:50:31.120Z,95970
2017-08-24T16:53:00.071Z,95971
2017-08-24T16:55:29.020Z,95978
2017-08-24T16:57:57.975Z,95985
2017-08-24T17:00:26.924Z,95985
2017-08-24T17:02:55.899Z,95976
2017-08-24T17:05:24.857Z,95984
2017-08-24T17:07:53.814Z,95980
2017-08-24T17:10:22.766Z,95977
2017-08-24T17:12:51.728Z,95987
2017-08-24T17:15:20.700Z,95991
2017-08-24T17:17:49.647Z,95995
2017-08-24T17:20:18.599Z,95994
2017-08-24T17:22:47.567Z,95994
2017-08-24T17:25:16.530Z,95999
2017-08-24T17:27:45.498Z,96003
2017-08-24T17:30:14.450Z,96015
2017-08-24T17:32:43.403Z,96027
2017-08-24T17:35:12.370Z,96022
2017-08-24T17:37:41.324Z,96019
2017-08-24T17:40:10.347Z,96044
2017-08-24T17:42:39.319Z,96032
2017-08-24T17:45:08.277Z,96044
2017-08-24T17:47:37.236Z,96041
2017-08-24T17:50:06.199Z,96042
2017-08-24T17:52:35.156Z,96045
2017-08-24T17:55:04.100Z,96058
2017-08-24T17:57:33.056Z,96059
2017-08-24T18:00:02.027Z,96060
2017-08-24T18:02:30.975Z,96058
2017-08-24T18:04:59.927Z,96060
2017-08-24T18:07:28.904Z,96068
2017-08-24T18:09:57.859Z,96059
2017-08-24T18:12:26.806Z,96064
2017-08-24T18:14:55.775Z,96055
2017-08-24T18:17:24.728Z,96056
2017-08-24T18:19:53.681Z,96061
2017-08-24T18:22:22.668Z,96057
2017-08-24T18:24:51.623Z,96043
2017-08-24T18:27:20.573Z,96044
2017-08-24T18:29:49.548Z,96048
2017-08-24T18:32:18.496Z,96044
2017-08-24T18:34:47.448Z,96051
2017-08-24T18:37:16.427Z,96053
2017-08-24T18:39:45.368Z,96053
2017-08-24T18:42:14.307Z,96063
2017-08-24T18:44:45.227Z,96057
2017-08-24T18:47:14.175Z,96058
2017-08-24T18:49:43.175Z,96061
2017-08-24T18:52:12.090Z,96056
2017-08-24T18:54:41.039Z,96063
2017-08-24T18:57:09.996Z,96072
2017-08-24T18:59:38.944Z,96075
2017-08-24T19:02:07.926Z,96075
2017-08-24T19:04:36.877Z,96070
2017-08-24T19:07:05.827Z,96070
2017-08-24T19:09:34.797Z,96069
2017-08-24T19:12:03.752Z,96076
2017-08-24T19:14:32.731Z,96074
2017-08-24T19:17:01.684Z,96078
2017-08-24T19:19:30.636Z,96082
2017-08-24T19:22:00.996Z,96080
2017-08-24T19:24:30.221Z,96078
2017-08-24T19:26:59.203Z,96078
2017-08-24T19:29:28.151Z,96085
2017-08-24T19:31:57.115Z,96097
2017-08-24T19:34:28.023Z,96081
2017-08-24T19:36:57.937Z,96087
2017-08-24T19:39:26.902Z,96085
2017-08-24T19:41:55.861Z,96078
2017-08-24T19:44:24.906Z,96091
2017-08-24T19:46:53.880Z,96087
2017-08-24T19:49:22.833Z,96080
2017-08-24T19:51:51.823Z,96082
2017-08-24T19:54:20.776Z,96078
2017-08-24T19:56:49.725Z,96078
2017-08-24T19:59:19.604Z,96077
2017-08-24T20:01:51.435Z,96078
2017-08-24T20:04:20.599Z,96077
2017-08-24T20:06:49.563Z,96075
2017-08-24T20:09:19.448Z,96083
2017-08-24T20:11:48.747Z,96085
2017-08-24T20:14:17.757Z,96087
2017-08-24T20:16:46.814Z,96085
2017-08-24T20:19:15.887Z,96094
2017-08-24T20:21:46.182Z,96094
2017-08-24T20:24:15.160Z,96098
2017-08-24T20:26:44.917Z,96105
2017-08-24T20:29:13.859Z,96101
2017-08-24T20:31:42.803Z,96097
2017-08-24T20:34:11.775Z,96087
2017-08-24T20:36:41.092Z,96084
2017-08-24T20:39:11.455Z,96087
2017-08-24T20:41:40.428Z,96079
2017-08-24T20:44:09.356Z,96076
2017-08-24T20:46:38.308Z,96083
2017-08-24T20:49:07.263Z,96077
2017-08-24T20:51:36.324Z,96084
2017-08-24T20:54:05.242Z,96082
2017-08-24T20:56:35.019Z,96075
2017-08-24T20:59:03.975Z,96074
2017-08-24T21:01:32.923Z,96072
2017-08-24T21:04:01.904Z,96064
2017-08-24T21:06:31.117Z,96071
2017-08-24T21:09:00.747Z,96066
2017-08-24T21:11:30.194Z,95616
2017-08-24T21:14:00.094Z,96064
2017-08-24T21:16:29.192Z,96057
2017-08-24T21:18:58.383Z,96060
2017-08-24T21:21:27.387Z,96068
2017-08-24T21:23:57.013Z,96061
2017-08-24T21:26:26.104Z,96062
2017-08-24T21:28:55.616Z,96062
2017-08-24T21:31:25.058Z,96062
2017-08-24T21:33:55.061Z,96058
2017-08-24T21:36:24.313Z,96056
2017-08-24T21:38:53.742Z,96058
2017-08-24T21:41:23.066Z,96058
2017-08-24T21:43:52.603Z,96064
2017-08-24T21:46:21.997Z,96072
2017-08-24T21:48:51.228Z,96057
2017-08-24T21:51:20.385Z,96059
2017-08-24T21:53:49.579Z,96064
2017-08-24T21:56:19.137Z,96069
2017-08-24T21:58:48.232Z,96097
2017-08-24T22:01:17.847Z,96084
2017-08-24T22:03:47.357Z,96085
2017-08-24T22:06:17.563Z,96088
2017-08-24T22:08:46.625Z,96096
2017-08-24T22:11:15.739Z,96099
2017-08-24T22:13:44.700Z,96093
2017-08-24T22:16:14.796Z,96101
2017-08-24T22:18:44.228Z,96098
2017-08-24T22:21:13.208Z,96103
2017-08-24T22:23:42.681Z,96108
2017-08-24T22:26:11.933Z,96105
2017-08-24T22:28:41.433Z,96104
2017-08-24T22:31:10.801Z,96109
2017-08-24T22:33:41.979Z,96106
2017-08-24T22:36:12.103Z,96108
2017-08-24T22:38:41.318Z,96110
2017-08-24T22:41:10.601Z,96107
2017-08-24T22:43:40.100Z,96113
2017-08-24T22:46:09.332Z,96115
2017-08-24T22:48:38.704Z,96120
2017-08-24T22:51:08.336Z,96103
2017-08-24T22:53:43.027Z,96111
2017-08-24T22:59:27.885Z,96105
2017-08-24T23:02:02.808Z,96108
2017-08-24T23:04:31.928Z,96105
2017-08-24T23:07:00.907Z,96103
2017-08-24T23:09:29.980Z,96111
2017-08-24T23:11:58.914Z,96098
2017-08-24T23:14:27.887Z,96100
2017-08-24T23:16:57.986Z,96106
2017-08-24T23:19:26.936Z,96106
2017-08-24T23:21:56.182Z,96105
2017-08-24T23:24:25.447Z,96101
2017-08-24T23:26:54.488Z,96092
2017-08-24T23:29:23.655Z,96093
2017-08-24T23:31:52.574Z,96099
2017-08-24T23:34:21.518Z,96095
2017-08-24T23:36:50.482Z,96092
2017-08-24T23:39:19.456Z,96088
2017-08-24T23:41:48.483Z,96081
2017-08-24T23:44:17.495Z,96086
2017-08-24T23:46:46.616Z,96084
2017-08-24T23:49:15.693Z,96087
2017-08-24T23:51:44.636Z,96076
2017-08-24T23:54:13.615Z,96074
2017-08-24T23:56:42.704Z,96068
2017-08-24T23:59:11.639Z,96084
